createdAt,value
2023-05-27T00:01:36.620Z,3.17
2023-05-27T00:04:04.782Z,3.38
2023-05-27T00:06:32.864Z,3.38
2023-05-27T00:09:02.263Z,3.15
2023-05-27T00:11:30.268Z,3.83
2023-05-27T00:13:58.408Z,3.55
2023-05-27T00:16:27.938Z,3.40
2023-05-27T00:18:56.731Z,3.05
2023-05-27T00:21:24.656Z,3.60
2023-05-27T00:23:53.748Z,2.97
2023-05-27T00:26:23.037Z,3.50
2023-05-27T00:28:53.539Z,3.00
2023-05-27T00:31:21.820Z,4.05
2023-05-27T00:33:49.811Z,3.45
2023-05-27T00:36:18.216Z,3.38
2023-05-27T00:38:46.233Z,3.10
2023-05-27T00:41:14.535Z,3.15
2023-05-27T00:43:43.912Z,3.35
2023-05-27T00:46:12.078Z,3.53
2023-05-27T00:48:40.356Z,3.08
2023-05-27T00:51:08.607Z,3.15
2023-05-27T00:53:41.898Z,3.22
2023-05-27T00:58:38.020Z,2.97
2023-05-27T01:01:08.377Z,3.28
2023-05-27T01:03:36.878Z,2.97
2023-05-27T01:06:11.100Z,3.08
2023-05-27T01:08:46.635Z,3.33
2023-05-27T01:11:14.974Z,3.22
2023-05-27T01:13:46.118Z,3.00
2023-05-27T01:16:17.352Z,3.10
2023-05-27T01:18:47.968Z,3.35
2023-05-27T01:21:18.930Z,3.03
2023-05-27T01:23:51.284Z,3.20
2023-05-27T01:26:19.534Z,3.63
2023-05-27T01:28:47.800Z,3.28
2023-05-27T01:31:18.668Z,3.17
2023-05-27T01:33:56.499Z,2.90
2023-05-27T01:36:28.955Z,3.70
2023-05-27T01:38:59.018Z,2.47
2023-05-27T01:41:27.674Z,3.22
2023-05-27T01:43:56.041Z,3.33
2023-05-27T01:46:24.288Z,3.63
2023-05-27T01:48:52.259Z,3.10
2023-05-27T01:51:20.463Z,3.75
2023-05-27T01:53:48.420Z,3.35
2023-05-27T01:56:17.738Z,3.65
2023-05-27T01:58:45.918Z,3.58
2023-05-27T02:01:14.287Z,3.65
2023-05-27T02:03:42.506Z,3.13
2023-05-27T02:06:11.278Z,3.55
2023-05-27T02:08:39.680Z,3.28
2023-05-27T02:11:07.893Z,3.58
2023-05-27T02:13:38.503Z,3.60
2023-05-27T02:16:07.024Z,3.95
2023-05-27T02:18:36.026Z,3.58
2023-05-27T02:21:07.108Z,3.25
2023-05-27T02:23:35.257Z,3.53
2023-05-27T02:26:03.268Z,3.17
2023-05-27T02:28:31.264Z,3.05
2023-05-27T02:31:01.827Z,3.42
2023-05-27T02:33:29.816Z,3.20
2023-05-27T02:35:58.156Z,3.50
2023-05-27T02:38:26.304Z,3.40
2023-05-27T02:40:54.287Z,3.75
2023-05-27T02:43:22.671Z,3.25
2023-05-27T02:45:50.899Z,3.25
2023-05-27T02:48:20.903Z,2.92
2023-05-27T02:50:49.227Z,3.28
2023-05-27T02:53:17.194Z,3.50
2023-05-27T02:55:45.607Z,3.13
2023-05-27T02:58:13.826Z,3.03
2023-05-27T03:00:42.290Z,3.63
2023-05-27T03:03:10.501Z,3.35
2023-05-27T03:05:39.917Z,3.33
2023-05-27T03:08:07.919Z,3.13
2023-05-27T03:10:37.385Z,3.35
2023-05-27T03:13:07.615Z,3.42
2023-05-27T03:15:36.394Z,3.05
2023-05-27T03:18:04.649Z,3.20
2023-05-27T03:20:33.349Z,3.08
2023-05-27T03:23:02.866Z,3.47
2023-05-27T03:25:31.125Z,2.65
2023-05-27T03:28:01.661Z,3.03
2023-05-27T03:30:29.815Z,3.65
2023-05-27T03:32:59.166Z,3.22
2023-05-27T03:35:36.554Z,3.45
2023-05-27T03:38:06.583Z,2.92
2023-05-27T03:40:35.769Z,3.10
2023-05-27T03:43:07.761Z,3.00
2023-05-27T03:45:35.827Z,2.88
2023-05-27T03:48:03.902Z,2.90
2023-05-27T03:50:31.921Z,3.42
2023-05-27T03:52:59.855Z,2.70
2023-05-27T03:55:30.213Z,3.50
2023-05-27T03:57:58.538Z,3.20
2023-05-27T04:00:27.653Z,3.33
2023-05-27T04:02:57.409Z,3.20
2023-05-27T04:05:26.354Z,2.72
2023-05-27T04:07:54.405Z,2.85
2023-05-27T04:10:22.523Z,3.50
2023-05-27T04:12:52.056Z,3.38
2023-05-27T04:15:20.026Z,3.40
2023-05-27T04:17:49.077Z,2.75
2023-05-27T04:20:17.553Z,3.00
2023-05-27T04:22:48.997Z,3.25
2023-05-27T04:25:19.527Z,3.40
2023-05-27T04:28:16.605Z,2.72
2023-05-27T04:30:48.479Z,2.90
2023-05-27T04:33:36.816Z,3.20
2023-05-27T04:36:05.883Z,3.25
2023-05-27T04:38:41.969Z,2.65
2023-05-27T04:41:10.056Z,3.22
2023-05-27T04:43:59.398Z,2.42
2023-05-27T04:46:32.849Z,3.10
2023-05-27T04:49:01.512Z,2.58
2023-05-27T04:51:30.236Z,2.28
2023-05-27T04:53:58.649Z,3.05
2023-05-27T04:56:28.285Z,2.80
2023-05-27T04:58:57.787Z,2.97
2023-05-27T05:01:40.464Z,2.50
2023-05-27T05:04:15.467Z,3.00
2023-05-27T05:06:56.876Z,2.70
2023-05-27T05:09:26.209Z,2.85
2023-05-27T05:11:54.194Z,3.00
2023-05-27T05:14:23.544Z,3.65
2023-05-27T05:16:52.782Z,2.80
2023-05-27T05:19:20.902Z,2.85
2023-05-27T05:21:48.869Z,3.45
2023-05-27T05:24:17.514Z,2.97
2023-05-27T05:26:47.072Z,3.15
2023-05-27T05:29:15.894Z,3.10
2023-05-27T05:31:46.551Z,2.95
2023-05-27T05:34:16.823Z,3.30
2023-05-27T05:36:45.289Z,2.90
2023-05-27T05:39:13.397Z,3.00
2023-05-27T05:44:19.774Z,2.25
2023-05-27T05:46:50.829Z,3.38
2023-05-27T05:49:20.388Z,3.00
2023-05-27T05:51:48.817Z,2.97
2023-05-27T05:54:16.896Z,3.17
2023-05-27T05:56:49.706Z,3.25
2023-05-27T05:59:17.767Z,2.92
2023-05-27T06:01:45.830Z,2.70
2023-05-27T06:04:15.284Z,2.60
2023-05-27T06:06:45.983Z,3.15
2023-05-27T06:09:17.051Z,2.42
2023-05-27T06:11:45.164Z,2.60
2023-05-27T06:14:13.709Z,2.92
2023-05-27T06:16:41.828Z,3.00
2023-05-27T06:19:10.838Z,2.38
2023-05-27T06:21:40.841Z,3.47
2023-05-27T06:24:27.442Z,2.33
2023-05-27T06:27:18.586Z,2.72
2023-05-27T06:29:48.159Z,2.35
2023-05-27T06:32:21.825Z,2.28
2023-05-27T06:34:50.024Z,2.55
2023-05-27T06:37:19.712Z,2.00
2023-05-27T06:39:47.723Z,2.17
2023-05-27T06:42:16.184Z,2.33
2023-05-27T06:45:04.559Z,2.83
2023-05-27T06:47:34.454Z,2.00
2023-05-27T06:50:02.764Z,1.92
2023-05-27T06:52:32.249Z,1.90
2023-05-27T06:55:13.695Z,2.28
2023-05-27T06:58:00.561Z,2.15
2023-05-27T07:00:38.155Z,1.88
2023-05-27T07:03:35.545Z,1.90
2023-05-27T07:06:06.407Z,1.25
2023-05-27T07:08:43.375Z,1.45
2023-05-27T07:11:20.629Z,1.98
2023-05-27T07:13:49.760Z,1.98
2023-05-27T07:16:21.950Z,1.45
2023-05-27T07:18:51.493Z,1.30
2023-05-27T07:21:20.188Z,1.65
2023-05-27T07:23:50.056Z,1.80
2023-05-27T07:26:28.128Z,1.48
2023-05-27T07:28:56.519Z,2.40
2023-05-27T07:31:34.526Z,1.50
2023-05-27T07:34:11.240Z,1.45
2023-05-27T07:36:39.334Z,2.00
2023-05-27T07:39:08.756Z,1.58
2023-05-27T07:41:37.038Z,1.92
2023-05-27T07:44:06.192Z,1.85
2023-05-27T07:46:35.216Z,1.63
2023-05-27T07:49:03.567Z,1.50
2023-05-27T07:51:33.898Z,1.40
2023-05-27T07:54:02.959Z,1.48
2023-05-27T07:56:35.353Z,1.63
2023-05-27T07:59:03.626Z,2.15
2023-05-27T08:01:33.745Z,1.70
2023-05-27T08:04:08.871Z,2.08
2023-05-27T08:06:59.656Z,1.40
2023-05-27T08:09:49.155Z,1.70
2023-05-27T08:12:48.539Z,1.90
2023-05-27T08:15:28.116Z,1.75
2023-05-27T08:18:06.912Z,1.83
2023-05-27T08:20:45.126Z,1.73
2023-05-27T08:23:23.899Z,1.65
2023-05-27T08:25:57.372Z,1.73
2023-05-27T08:28:26.751Z,1.80
2023-05-27T08:31:03.187Z,1.70
2023-05-27T08:33:40.266Z,1.92
2023-05-27T08:36:08.824Z,1.63
2023-05-27T08:38:37.086Z,2.25
2023-05-27T08:41:21.264Z,2.08
2023-05-27T08:43:53.805Z,2.10
2023-05-27T08:46:25.168Z,1.95
2023-05-27T08:48:56.713Z,1.60
2023-05-27T08:51:25.801Z,1.98
2023-05-27T08:53:53.830Z,2.75
2023-05-27T08:56:23.393Z,2.15
2023-05-27T08:58:56.169Z,2.20
2023-05-27T09:01:24.306Z,1.88
2023-05-27T09:03:52.971Z,1.63
2023-05-27T09:06:21.311Z,1.90
2023-05-27T09:08:50.802Z,2.25
2023-05-27T09:11:26.669Z,2.28
2023-05-27T09:13:57.655Z,2.63
2023-05-27T09:16:25.679Z,2.70
2023-05-27T09:18:53.759Z,2.10
2023-05-27T09:21:21.731Z,2.88
2023-05-27T09:23:49.694Z,2.55
2023-05-27T09:26:17.600Z,2.50
2023-05-27T09:28:45.525Z,2.40
2023-05-27T09:31:14.888Z,3.05
2023-05-27T09:33:42.838Z,2.75
2023-05-27T09:36:11.068Z,2.70
2023-05-27T09:38:39.122Z,2.40
2023-05-27T09:41:07.365Z,2.85
2023-05-27T09:43:35.707Z,2.20
2023-05-27T09:46:15.599Z,2.75
2023-05-27T09:48:43.595Z,2.40
2023-05-27T09:51:11.868Z,2.58
2023-05-27T09:53:40.166Z,2.40
2023-05-27T09:56:08.371Z,2.42
2023-05-27T09:58:36.790Z,2.72
2023-05-27T10:01:05.795Z,2.22
2023-05-27T10:03:35.465Z,2.45
2023-05-27T10:06:04.287Z,2.50
2023-05-27T10:08:32.380Z,2.15
2023-05-27T10:11:00.869Z,2.22
2023-05-27T10:13:29.480Z,2.35
2023-05-27T10:15:57.697Z,1.90
2023-05-27T10:18:26.221Z,2.25
2023-05-27T10:20:56.010Z,2.17
2023-05-27T10:23:27.666Z,2.38
2023-05-27T10:25:57.990Z,2.40
2023-05-27T10:28:27.556Z,2.20
2023-05-27T10:30:56.210Z,2.20
2023-05-27T10:33:31.658Z,1.98
2023-05-27T10:36:07.104Z,1.90
2023-05-27T10:38:35.457Z,2.13
2023-05-27T10:41:04.014Z,1.92
2023-05-27T10:43:32.520Z,1.90
2023-05-27T10:46:04.540Z,2.35
2023-05-27T10:48:34.211Z,3.17
2023-05-27T10:51:02.488Z,2.30
2023-05-27T10:53:31.920Z,2.17
2023-05-27T10:56:00.876Z,2.20
2023-05-27T10:58:29.377Z,2.17
2023-05-27T11:00:58.988Z,2.20
2023-05-27T11:03:28.793Z,2.63
2023-05-27T11:06:02.422Z,2.40
2023-05-27T11:08:32.372Z,1.80
2023-05-27T11:11:01.420Z,1.90
2023-05-27T11:13:34.053Z,2.17
2023-05-27T11:18:40.824Z,2.03
2023-05-27T11:21:09.391Z,2.17
2023-05-27T11:23:41.024Z,2.20
2023-05-27T11:26:16.468Z,2.33
2023-05-27T11:28:49.141Z,2.00
2023-05-27T11:33:46.067Z,1.83
2023-05-27T11:36:15.059Z,2.25
2023-05-27T11:38:52.641Z,2.17
2023-05-27T11:41:21.292Z,1.92
2023-05-27T11:43:53.593Z,2.10
2023-05-27T11:46:23.018Z,2.78
2023-05-27T11:48:51.165Z,2.13
2023-05-27T11:51:19.064Z,2.15
2023-05-27T11:53:47.845Z,2.30
2023-05-27T11:56:17.443Z,2.63
2023-05-27T11:58:45.357Z,2.25
2023-05-27T12:01:13.347Z,2.10
2023-05-27T12:03:42.834Z,2.05
2023-05-27T12:06:12.201Z,2.20
2023-05-27T12:08:40.396Z,2.35
2023-05-27T12:11:08.392Z,1.80
2023-05-27T12:13:37.850Z,1.70
2023-05-27T12:16:06.294Z,2.05
2023-05-27T12:18:34.328Z,2.20
2023-05-27T12:21:02.228Z,2.50
2023-05-27T12:23:30.290Z,2.38
2023-05-27T12:25:58.216Z,2.20
2023-05-27T12:28:27.224Z,2.20
2023-05-27T12:30:57.429Z,2.25
2023-05-27T12:33:25.807Z,2.20
2023-05-27T12:35:53.786Z,2.40
2023-05-27T12:38:21.755Z,2.65
2023-05-27T12:40:50.437Z,2.30
2023-05-27T12:43:19.609Z,2.03
2023-05-27T12:45:47.953Z,2.25
2023-05-27T12:48:18.811Z,2.13
2023-05-27T12:50:46.923Z,2.10
2023-05-27T12:53:14.789Z,2.17
2023-05-27T12:55:44.477Z,2.25
2023-05-27T12:58:12.563Z,2.33
2023-05-27T13:00:40.484Z,2.10
2023-05-27T13:03:09.642Z,2.42
2023-05-27T13:05:40.938Z,2.35
2023-05-27T13:08:09.024Z,2.10
2023-05-27T13:10:36.986Z,1.80
2023-05-27T13:13:04.884Z,2.08
2023-05-27T13:15:32.834Z,2.00
2023-05-27T13:18:01.219Z,2.17
2023-05-27T13:20:31.119Z,2.03
2023-05-27T13:23:02.372Z,2.20
2023-05-27T13:25:30.758Z,2.22
2023-05-27T13:27:58.951Z,2.30
2023-05-27T13:30:27.729Z,2.20
2023-05-27T13:32:56.236Z,2.15
2023-05-27T13:35:24.338Z,2.10
2023-05-27T13:37:52.278Z,2.50
2023-05-27T13:40:21.810Z,1.90
2023-05-27T13:42:49.777Z,2.10
2023-05-27T13:45:17.945Z,2.15
2023-05-27T13:47:46.765Z,1.90
2023-05-27T13:50:14.834Z,2.10
2023-05-27T13:52:42.855Z,2.03
2023-05-27T13:55:11.360Z,2.25
2023-05-27T13:57:41.217Z,2.30
2023-05-27T14:00:10.159Z,2.33
2023-05-27T14:02:39.227Z,2.05
2023-05-27T14:05:08.744Z,1.95
2023-05-27T14:07:42.490Z,2.17
2023-05-27T14:10:11.393Z,2.30
2023-05-27T14:12:41.784Z,2.33
2023-05-27T14:15:10.471Z,2.13
2023-05-27T14:17:38.526Z,2.47
2023-05-27T14:20:11.611Z,2.50
2023-05-27T14:22:39.990Z,2.05
2023-05-27T14:25:08.805Z,2.30
2023-05-27T14:27:36.790Z,2.17
2023-05-27T14:30:07.234Z,2.30
2023-05-27T14:32:35.251Z,2.35
2023-05-27T14:35:03.154Z,2.20
2023-05-27T14:37:31.120Z,2.58
2023-05-27T14:39:58.986Z,1.77
2023-05-27T14:42:26.934Z,2.22
2023-05-27T14:44:54.886Z,2.30
2023-05-27T14:47:24.484Z,1.88
2023-05-27T14:49:52.420Z,2.00
2023-05-27T14:52:20.298Z,2.25
2023-05-27T14:54:48.227Z,2.63
2023-05-27T14:57:16.743Z,2.30
2023-05-27T14:59:44.753Z,2.50
2023-05-27T15:02:12.846Z,2.80
2023-05-27T15:04:42.149Z,2.35
2023-05-27T15:07:10.098Z,1.98
2023-05-27T15:09:38.413Z,2.13
2023-05-27T15:12:08.045Z,2.55
2023-05-27T15:14:36.072Z,2.40
2023-05-27T15:17:05.955Z,2.28
2023-05-27T15:19:34.007Z,2.13
2023-05-27T15:22:03.258Z,2.25
2023-05-27T15:24:31.288Z,2.53
2023-05-27T15:26:59.897Z,2.22
2023-05-27T15:29:28.250Z,2.55
2023-05-27T15:31:56.267Z,2.35
2023-05-27T15:34:25.045Z,1.92
2023-05-27T15:36:55.205Z,2.08
2023-05-27T15:39:24.539Z,2.90
2023-05-27T15:41:52.471Z,2.50
2023-05-27T15:44:20.579Z,2.45
2023-05-27T15:46:48.446Z,2.70
2023-05-27T15:49:16.783Z,2.30
2023-05-27T15:51:45.365Z,3.03
2023-05-27T15:54:14.360Z,2.53
2023-05-27T15:56:45.325Z,2.60
2023-05-27T15:59:13.681Z,2.25
2023-05-27T16:01:41.618Z,2.40
2023-05-27T16:04:09.879Z,2.45
2023-05-27T16:06:37.953Z,2.67
2023-05-27T16:09:06.475Z,2.70
2023-05-27T16:11:34.409Z,2.50
2023-05-27T16:14:03.754Z,2.75
2023-05-27T16:16:31.805Z,2.38
2023-05-27T16:18:59.887Z,2.58
2023-05-27T16:21:27.951Z,2.80
2023-05-27T16:24:06.370Z,2.78
2023-05-27T16:26:35.195Z,2.38
2023-05-27T16:29:04.660Z,3.20
2023-05-27T16:31:32.749Z,2.38
2023-05-27T16:34:00.860Z,2.75
2023-05-27T16:36:29.114Z,2.70
2023-05-27T16:38:57.113Z,2.70
2023-05-27T16:41:25.428Z,2.95
2023-05-27T16:43:53.374Z,2.55
2023-05-27T16:46:23.006Z,2.80
2023-05-27T16:48:50.943Z,2.17
2023-05-27T16:51:18.863Z,2.58
2023-05-27T16:53:47.155Z,2.95
2023-05-27T16:56:15.131Z,2.75
2023-05-27T16:58:43.105Z,2.88
2023-05-27T17:01:11.369Z,2.60
2023-05-27T17:03:40.717Z,2.88
2023-05-27T17:06:08.803Z,2.80
2023-05-27T17:08:36.896Z,3.28
2023-05-27T17:11:05.297Z,2.88
2023-05-27T17:13:33.240Z,2.58
2023-05-27T17:16:02.045Z,3.30
2023-05-27T17:18:30.045Z,2.45
2023-05-27T17:20:59.439Z,2.95
2023-05-27T17:23:27.345Z,2.95
2023-05-27T17:25:55.308Z,2.88
2023-05-27T17:28:23.363Z,3.38
2023-05-27T17:30:51.631Z,3.40
2023-05-27T17:33:19.749Z,3.17
2023-05-27T17:35:48.872Z,3.30
2023-05-27T17:38:18.270Z,2.80
2023-05-27T17:40:46.250Z,2.97
2023-05-27T17:43:14.488Z,3.00
2023-05-27T17:45:42.633Z,3.33
2023-05-27T17:48:13.195Z,3.25
2023-05-27T17:50:41.442Z,4.07
2023-05-27T17:53:09.366Z,3.15
2023-05-27T17:55:38.634Z,3.80
2023-05-27T17:58:06.740Z,2.90
2023-05-27T18:00:34.797Z,3.20
2023-05-27T18:03:03.209Z,2.97
2023-05-27T18:05:31.313Z,2.58
2023-05-27T18:07:59.626Z,2.67
2023-05-27T18:10:28.996Z,3.08
2023-05-27T18:12:58.730Z,3.08
2023-05-27T18:15:26.661Z,2.80
2023-05-27T18:17:54.862Z,2.90
2023-05-27T18:20:23.238Z,3.13
2023-05-27T18:22:51.386Z,2.70
2023-05-27T18:25:19.600Z,2.72
2023-05-27T18:27:47.620Z,2.75
2023-05-27T18:30:17.145Z,2.95
2023-05-27T18:32:46.633Z,3.28
2023-05-27T18:35:29.874Z,2.80
2023-05-27T18:37:59.430Z,2.90
2023-05-27T18:40:29.277Z,2.70
2023-05-27T18:42:57.304Z,3.33
2023-05-27T18:45:48.093Z,3.00
2023-05-27T18:48:16.169Z,3.05
2023-05-27T18:50:44.212Z,3.05
2023-05-27T18:53:12.189Z,2.95
2023-05-27T18:55:40.092Z,3.53
2023-05-27T18:58:08.106Z,3.20
2023-05-27T19:00:37.730Z,3.30
2023-05-27T19:03:07.140Z,3.28
2023-05-27T19:05:35.441Z,3.08
2023-05-27T19:08:03.952Z,3.03
2023-05-27T19:10:32.270Z,3.50
2023-05-27T19:13:01.534Z,3.10
2023-05-27T19:15:30.618Z,3.17
2023-05-27T19:18:00.300Z,2.95
2023-05-27T19:20:28.658Z,2.78
2023-05-27T19:22:56.688Z,3.70
2023-05-27T19:25:24.639Z,2.70
2023-05-27T19:27:52.590Z,3.05
2023-05-27T19:30:21.969Z,3.40
2023-05-27T19:32:51.397Z,3.55
2023-05-27T19:35:21.042Z,3.10
2023-05-27T19:37:49.244Z,3.55
2023-05-27T19:40:17.231Z,3.40
2023-05-27T19:42:45.177Z,3.55
2023-05-27T19:45:13.151Z,3.25
2023-05-27T19:47:41.100Z,3.55
2023-05-27T19:50:10.529Z,3.78
2023-05-27T19:52:40.246Z,3.83
2023-05-27T19:55:08.970Z,4.10
2023-05-27T19:57:36.929Z,3.72
2023-05-27T20:00:06.932Z,3.83
2023-05-27T20:02:34.948Z,3.75
2023-05-27T20:05:02.960Z,3.67
2023-05-27T20:07:31.722Z,4.57
2023-05-27T20:10:01.027Z,4.25
2023-05-27T20:12:41.713Z,4.28
2023-05-27T20:15:11.673Z,4.82
2023-05-27T20:17:39.992Z,3.25
2023-05-27T20:20:09.971Z,4.80
2023-05-27T20:22:38.161Z,4.15
2023-05-27T20:25:08.691Z,4.35
2023-05-27T20:27:36.893Z,4.10
2023-05-27T20:30:07.071Z,4.25
2023-05-27T20:32:35.091Z,4.95
2023-05-27T20:35:03.055Z,4.53
2023-05-27T20:37:31.451Z,4.78
2023-05-27T20:39:59.371Z,4.88
2023-05-27T20:42:29.006Z,5.50
2023-05-27T20:44:57.051Z,4.57
2023-05-27T20:47:25.096Z,5.00
2023-05-27T20:49:53.027Z,4.60
2023-05-27T20:52:20.987Z,4.72
2023-05-27T20:54:49.200Z,5.43
2023-05-27T20:57:17.183Z,4.80
2023-05-27T20:59:46.488Z,4.57
2023-05-27T21:02:15.604Z,4.57
2023-05-27T21:04:43.936Z,4.30
2023-05-27T21:07:12.106Z,4.18
2023-05-27T21:09:41.136Z,4.15
2023-05-27T21:12:10.534Z,4.32
2023-05-27T21:14:38.636Z,4.78
2023-05-27T21:17:08.012Z,4.28
2023-05-27T21:19:35.932Z,4.13
2023-05-27T21:22:04.136Z,4.22
2023-05-27T21:24:32.082Z,4.05
2023-05-27T21:27:00.058Z,4.25
2023-05-27T21:29:28.450Z,4.47
2023-05-27T21:31:56.371Z,4.72
2023-05-27T21:34:25.854Z,4.65
2023-05-27T21:36:53.853Z,5.25
2023-05-27T21:39:22.028Z,5.07
2023-05-27T21:41:49.968Z,5.75
2023-05-27T21:44:17.910Z,5.88
2023-05-27T21:46:45.839Z,5.55
2023-05-27T21:49:13.780Z,5.82
2023-05-27T21:51:43.037Z,5.70
2023-05-27T21:54:11.060Z,6.10
2023-05-27T21:56:40.339Z,6.28
2023-05-27T21:59:08.377Z,5.85
2023-05-27T22:01:36.520Z,5.57
2023-05-27T22:04:04.510Z,5.78
2023-05-27T22:06:34.104Z,5.80
2023-05-27T22:09:03.482Z,5.13
2023-05-27T22:11:31.423Z,5.07
2023-05-27T22:13:59.416Z,5.25
2023-05-27T22:16:27.458Z,4.78
2023-05-27T22:18:55.521Z,5.43
2023-05-27T22:21:29.379Z,4.78
2023-05-27T22:23:57.936Z,5.53
2023-05-27T22:26:27.744Z,5.45
2023-05-27T22:28:55.652Z,4.90
2023-05-27T22:31:23.853Z,4.55
2023-05-27T22:33:51.905Z,4.35
2023-05-27T22:36:19.852Z,4.53
2023-05-27T22:38:47.804Z,4.03
2023-05-27T22:41:16.028Z,3.60
2023-05-27T22:43:45.406Z,3.88
2023-05-27T22:46:17.428Z,3.53
2023-05-27T22:48:45.996Z,3.28
2023-05-27T22:51:15.824Z,3.20
2023-05-27T22:53:44.395Z,3.50
2023-05-27T22:56:13.138Z,3.28
2023-05-27T22:58:41.868Z,2.90
2023-05-27T23:01:11.121Z,3.25
2023-05-27T23:03:39.247Z,3.20
2023-05-27T23:06:08.410Z,2.92
2023-05-27T23:08:36.478Z,3.35
2023-05-27T23:11:04.487Z,3.10
2023-05-27T23:13:32.500Z,3.35
2023-05-27T23:16:07.772Z,3.80
2023-05-27T23:18:37.274Z,4.20
2023-05-27T23:21:05.881Z,4.38
2023-05-27T23:23:33.848Z,5.00
2023-05-27T23:26:02.104Z,5.20
2023-05-27T23:28:30.058Z,4.30
2023-05-27T23:30:58.044Z,4.63
2023-05-27T23:33:26.019Z,3.90
2023-05-27T23:35:55.552Z,3.58
2023-05-27T23:38:23.711Z,3.13
2023-05-27T23:40:51.978Z,2.75
2023-05-27T23:43:19.873Z,2.38
2023-05-27T23:45:47.884Z,2.70
2023-05-27T23:48:15.809Z,2.85
2023-05-27T23:50:43.796Z,2.58
2023-05-27T23:53:13.180Z,2.63
2023-05-27T23:55:41.199Z,2.28
2023-05-27T23:58:09.111Z,2.40
